Time;durP1;ratioP1;P1;durP2;ratioP2;P2;SDS_P1;SDS_P2;PMS_P1;PMS_P2;Temp;Humidity;BMP_temperature;BMP_pressure;BME280_temperature;BME280_humidity;BME280_pressure;Samples;Min_cycle;Max_cycle;Signal;HPM_P1;HPM_P2
2024/04/22 00:02:20;;;;;;;4.22;2.42;;;4.40;99.90;;;;;;5343152;26;20020;-85
2024/04/22 00:04:45;;;;;;;4.50;2.25;;;4.40;99.90;;;;;;5339429;26;20023;-85
2024/04/22 00:07:11;;;;;;;4.85;1.77;;;4.30;99.90;;;;;;5329441;26;20012;-85
2024/04/22 00:09:37;;;;;;;5.43;2.25;;;4.30;99.90;;;;;;5348116;26;20008;-85
2024/04/22 00:12:03;;;;;;;5.90;2.97;;;4.30;99.90;;;;;;5345717;26;19997;-85
2024/04/22 00:14:29;;;;;;;4.10;2.72;;;4.30;99.90;;;;;;5345480;26;19997;-86
2024/04/22 00:16:55;;;;;;;6.53;2.47;;;4.30;99.90;;;;;;5372372;26;20326;-85
2024/04/22 00:19:21;;;;;;;3.60;1.95;;;4.20;99.90;;;;;;5336734;26;19997;-86
2024/04/22 00:21:46;;;;;;;5.82;2.30;;;4.20;99.90;;;;;;5340606;26;20012;-86
2024/04/22 00:24:12;;;;;;;5.63;2.42;;;4.20;99.90;;;;;;5336948;26;21455;-86
2024/04/22 00:26:38;;;;;;;5.80;2.28;;;4.20;99.90;;;;;;5350115;26;20001;-85
2024/04/22 00:29:04;;;;;;;4.40;2.20;;;4.10;99.90;;;;;;5342119;26;20004;-85
2024/04/22 00:31:29;;;;;;;6.25;2.00;;;4.10;99.90;;;;;;5307293;26;20011;-85
2024/04/22 00:33:55;;;;;;;4.13;2.53;;;4.10;99.90;;;;;;5344506;26;20001;-85
2024/04/22 00:36:20;;;;;;;4.07;2.10;;;4.10;99.90;;;;;;5353987;26;20015;-85
2024/04/22 00:38:48;;;;;;;5.60;2.22;;;4.10;99.90;;;;;;5319335;26;20002;-84
2024/04/22 00:41:14;;;;;;;6.35;2.63;;;4.00;99.90;;;;;;5342818;26;19997;-86
2024/04/22 00:43:39;;;;;;;3.75;1.90;;;4.00;99.90;;;;;;5344786;26;20001;-84
2024/04/22 00:46:06;;;;;;;5.53;2.90;;;4.00;99.90;;;;;;5341954;26;20001;-86
2024/04/22 00:48:32;;;;;;;5.05;2.60;;;3.90;99.90;;;;;;5344505;26;20004;-85
2024/04/22 00:50:59;;;;;;;5.13;2.30;;;3.90;99.90;;;;;;5344815;26;20468;-86
2024/04/22 00:53:26;;;;;;;5.15;2.83;;;3.80;99.90;;;;;;5344845;26;20412;-85
2024/04/22 00:55:54;;;;;;;5.50;2.92;;;3.80;99.90;;;;;;5345044;26;20078;-86
2024/04/22 00:58:21;;;;;;;4.78;2.90;;;3.80;99.90;;;;;;5346929;26;20078;-86
2024/04/22 01:00:48;;;;;;;5.18;2.60;;;3.70;99.90;;;;;;5346024;26;20471;-85
2024/04/22 01:03:15;;;;;;;6.95;2.53;;;3.70;99.90;;;;;;5347098;26;20020;-85
2024/04/22 01:05:41;;;;;;;5.15;2.40;;;3.70;99.90;;;;;;5375438;26;20004;-85
2024/04/22 01:08:07;;;;;;;4.32;2.65;;;3.70;99.90;;;;;;5338906;26;19997;-86
2024/04/22 01:10:33;;;;;;;4.55;2.53;;;3.70;99.90;;;;;;5342251;26;20067;-85
2024/04/22 01:13:01;;;;;;;5.35;2.35;;;3.70;99.90;;;;;;5348094;26;19997;-85
2024/04/22 01:15:27;;;;;;;8.48;2.60;;;3.70;99.90;;;;;;5338213;26;19996;-85
2024/04/22 01:17:53;;;;;;;4.97;2.50;;;3.70;99.90;;;;;;5344360;26;19997;-85
2024/04/22 01:20:18;;;;;;;4.32;2.97;;;3.70;99.90;;;;;;5334025;26;20001;-85
2024/04/22 01:22:44;;;;;;;3.95;2.42;;;3.70;99.90;;;;;;5334832;26;20029;-85
2024/04/22 01:25:10;;;;;;;4.70;2.38;;;3.80;99.90;;;;;;5343219;26;20015;-86
2024/04/22 01:27:36;;;;;;;4.45;2.92;;;3.70;99.90;;;;;;5329888;26;20349;-85
2024/04/22 01:30:05;;;;;;;6.22;2.72;;;3.70;99.90;;;;;;5371974;26;20375;-85
2024/04/22 01:32:31;;;;;;;5.47;2.38;;;3.80;99.90;;;;;;5338183;26;20010;-85
2024/04/22 01:34:59;;;;;;;6.80;3.17;;;3.80;99.90;;;;;;5349027;26;20013;-85
2024/04/22 01:37:26;;;;;;;5.18;2.80;;;3.80;99.90;;;;;;5338925;26;20000;-85
2024/04/22 01:39:51;;;;;;;7.20;3.53;;;3.80;99.90;;;;;;5341127;26;20016;-85
2024/04/22 01:42:17;;;;;;;6.10;3.60;;;3.80;99.90;;;;;;5333374;26;19997;-86
2024/04/22 01:44:43;;;;;;;6.07;3.28;;;3.80;99.90;;;;;;5327072;26;20001;-85
2024/04/22 01:47:08;;;;;;;5.30;2.53;;;3.80;99.90;;;;;;5347363;26;19997;-85
2024/04/22 01:49:34;;;;;;;4.68;2.55;;;3.80;99.90;;;;;;5343723;26;20005;-86
2024/04/22 01:51:59;;;;;;;5.82;3.17;;;3.80;99.90;;;;;;5326601;26;20005;-85
2024/04/22 01:54:25;;;;;;;4.85;3.22;;;3.80;99.90;;;;;;5344608;26;20383;-86
2024/04/22 01:56:51;;;;;;;7.68;3.35;;;3.70;99.90;;;;;;5370182;26;20027;-85
2024/04/22 01:59:17;;;;;;;7.90;3.30;;;3.70;99.90;;;;;;5337443;26;20009;-86
2024/04/22 02:01:43;;;;;;;5.55;3.22;;;3.70;99.90;;;;;;5320724;26;19997;-86
2024/04/22 02:04:09;;;;;;;5.00;3.42;;;3.70;99.90;;;;;;5345087;26;20326;-86
2024/04/22 02:06:35;;;;;;;5.95;3.05;;;3.60;99.90;;;;;;5336515;26;20037;-85
2024/04/22 02:09:01;;;;;;;5.05;3.75;;;3.60;99.90;;;;;;5332212;26;20002;-86
2024/04/22 02:11:26;;;;;;;9.13;4.18;;;3.60;99.90;;;;;;5320666;26;20001;-85
2024/04/22 02:13:52;;;;;;;7.18;4.32;;;3.50;99.90;;;;;;5343784;26;20429;-85
2024/04/22 02:16:18;;;;;;;7.97;4.20;;;3.50;99.90;;;;;;5327492;26;20137;-85
2024/04/22 02:18:43;;;;;;;6.75;3.85;;;3.50;99.90;;;;;;5344571;26;20000;-85
2024/04/22 02:21:09;;;;;;;5.05;3.90;;;3.40;99.90;;;;;;5327894;26;20017;-84
2024/04/22 02:23:34;;;;;;;6.30;3.88;;;3.40;99.90;;;;;;5339900;26;19997;-86
2024/04/22 02:26:00;;;;;;;7.65;3.70;;;3.40;99.90;;;;;;5334653;26;20000;-85
2024/04/22 02:28:26;;;;;;;6.18;4.22;;;3.40;99.90;;;;;;5341044;26;19998;-85
2024/04/22 02:30:51;;;;;;;7.28;3.80;;;3.40;99.90;;;;;;5336856;26;20005;-85
2024/04/22 02:33:17;;;;;;;6.00;4.43;;;3.30;99.90;;;;;;5330951;26;19996;-85
2024/04/22 02:35:43;;;;;;;8.23;3.78;;;3.30;99.90;;;;;;5347439;26;20005;-86
2024/04/22 02:38:08;;;;;;;10.40;4.93;;;3.30;99.90;;;;;;5343884;26;20041;-85
2024/04/22 02:40:34;;;;;;;8.30;5.03;;;3.20;99.90;;;;;;5373162;26;20033;-84
2024/04/22 02:43:01;;;;;;;8.93;4.95;;;3.10;99.90;;;;;;5327994;26;19997;-85
2024/04/22 02:45:27;;;;;;;8.40;5.22;;;3.10;99.90;;;;;;5338263;26;20005;-84
2024/04/22 02:47:53;;;;;;;8.80;4.70;;;3.10;99.90;;;;;;5333708;26;20012;-85
2024/04/22 02:50:18;;;;;;;9.38;6.30;;;3.10;99.90;;;;;;5345221;26;20452;-84
2024/04/22 02:52:44;;;;;;;9.55;5.25;;;3.10;99.90;;;;;;5343527;26;20078;-85
2024/04/22 02:55:10;;;;;;;7.93;5.22;;;3.10;99.90;;;;;;5338727;26;19997;-85
2024/04/22 02:57:36;;;;;;;10.70;6.43;;;3.00;99.90;;;;;;5324172;26;20020;-85
2024/04/22 03:00:02;;;;;;;9.23;5.35;;;3.00;99.90;;;;;;5336956;26;20403;-84
2024/04/22 03:02:28;;;;;;;8.43;5.45;;;3.00;99.90;;;;;;5373084;26;20005;-85
2024/04/22 03:04:53;;;;;;;10.00;5.93;;;3.10;99.90;;;;;;5343859;26;20016;-85
2024/04/22 03:07:19;;;;;;;7.60;4.72;;;3.10;99.90;;;;;;5340067;26;20013;-85
2024/04/22 03:09:45;;;;;;;8.60;5.60;;;3.00;99.90;;;;;;5334301;26;20016;-85
2024/04/22 03:12:11;;;;;;;9.90;5.35;;;3.00;99.90;;;;;;5333797;26;20005;-85
2024/04/22 03:14:37;;;;;;;7.95;4.97;;;3.00;99.90;;;;;;5332480;26;20016;-85
2024/04/22 03:17:03;;;;;;;10.00;6.07;;;3.00;99.90;;;;;;5335558;26;20002;-84
2024/04/22 03:19:28;;;;;;;8.55;5.13;;;3.00;99.90;;;;;;5349092;26;20048;-85
2024/04/22 03:21:54;;;;;;;10.65;5.40;;;2.90;99.90;;;;;;5339231;26;20001;-84
2024/04/22 03:24:20;;;;;;;11.60;5.60;;;2.90;99.90;;;;;;5347582;26;20013;-85
2024/04/22 03:26:46;;;;;;;10.10;5.70;;;2.90;99.90;;;;;;5371001;26;20075;-85
2024/04/22 03:29:12;;;;;;;11.88;6.18;;;2.90;99.90;;;;;;5344513;26;20024;-85
2024/04/22 03:31:37;;;;;;;10.32;5.38;;;2.90;99.90;;;;;;5343129;26;20083;-85
2024/04/22 03:34:03;;;;;;;11.27;5.75;;;2.90;99.90;;;;;;5344315;26;20445;-85
2024/04/22 03:36:29;;;;;;;8.43;5.35;;;2.90;99.90;;;;;;5337112;26;20008;-85
2024/04/22 03:38:55;;;;;;;14.60;6.43;;;2.90;99.90;;;;;;5331740;26;20341;-85
2024/04/22 03:41:20;;;;;;;9.18;5.70;;;2.80;99.90;;;;;;5340692;26;20012;-85
2024/04/22 03:43:46;;;;;;;9.10;5.85;;;2.80;99.90;;;;;;5336368;26;20015;-85
2024/04/22 03:51:41;;;;;;;9.18;5.70;;;2.70;99.90;;;;;;5333522;26;20060;-85
2024/04/22 03:54:07;;;;;;;13.20;6.30;;;2.60;99.90;;;;;;5342596;26;20000;-84
2024/04/22 03:56:32;;;;;;;10.88;6.43;;;2.60;99.90;;;;;;5358584;26;20001;-85
2024/04/22 03:58:58;;;;;;;12.25;6.72;;;2.60;99.90;;;;;;5340619;26;20313;-85
2024/04/22 04:01:23;;;;;;;10.52;6.28;;;2.50;99.90;;;;;;5342087;26;20004;-85
2024/04/22 04:03:49;;;;;;;12.55;6.55;;;2.50;99.90;;;;;;5326154;26;20260;-86
2024/04/22 04:06:14;;;;;;;9.02;5.78;;;2.40;99.90;;;;;;5329410;26;20002;-85
2024/04/22 04:08:40;;;;;;;10.18;5.63;;;2.40;99.90;;;;;;5342945;26;20001;-85
2024/04/22 04:11:12;;;;;;;10.35;5.93;;;2.30;99.90;;;;;;5330530;26;20473;-85
2024/04/22 04:13:39;;;;;;;10.48;6.13;;;2.30;99.90;;;;;;5321517;26;20010;-85
2024/04/22 04:16:04;;;;;;;12.85;6.30;;;2.30;99.90;;;;;;5332231;26;20005;-85
2024/04/22 04:18:30;;;;;;;11.82;5.63;;;2.20;99.90;;;;;;5329663;26;20078;-85
2024/04/22 04:20:56;;;;;;;10.10;6.50;;;2.20;99.90;;;;;;5340490;26;19997;-85
2024/04/22 04:23:21;;;;;;;11.45;6.85;;;2.10;99.90;;;;;;5335528;26;20029;-84
2024/04/22 04:25:47;;;;;;;12.35;6.82;;;2.10;99.90;;;;;;5341507;26;20008;-85
2024/04/22 04:28:12;;;;;;;11.07;7.10;;;2.10;99.90;;;;;;5335730;26;20041;-85
2024/04/22 04:30:38;;;;;;;12.52;7.10;;;2.10;99.90;;;;;;5330814;26;20007;-86
2024/04/22 04:33:04;;;;;;;15.32;8.50;;;2.10;99.90;;;;;;5346968;26;20078;-85
2024/04/22 04:35:29;;;;;;;13.07;8.00;;;2.20;99.90;;;;;;5374325;26;20011;-85
2024/04/22 04:37:55;;;;;;;14.02;7.53;;;2.20;99.90;;;;;;5332496;26;20020;-85
2024/04/22 04:40:21;;;;;;;14.35;7.60;;;2.20;99.90;;;;;;5339259;26;19997;-85
2024/04/22 04:42:46;;;;;;;13.20;8.30;;;2.20;99.90;;;;;;5340911;26;20001;-85
2024/04/22 04:45:12;;;;;;;13.63;8.80;;;2.30;99.90;;;;;;5338180;26;20463;-85
2024/04/22 04:47:37;;;;;;;13.02;7.53;;;2.30;99.90;;;;;;5331803;26;20013;-85
2024/04/22 04:50:03;;;;;;;12.60;7.80;;;2.30;99.90;;;;;;5348227;26;19997;-86
2024/04/22 04:52:29;;;;;;;12.77;7.75;;;2.30;99.90;;;;;;5346283;26;20078;-86
2024/04/22 04:54:54;;;;;;;15.82;8.57;;;2.30;99.90;;;;;;5334237;26;19996;-86
2024/04/22 04:57:20;;;;;;;17.08;9.65;;;2.30;99.90;;;;;;5339010;26;20002;-86
2024/04/22 04:59:46;;;;;;;14.93;9.00;;;2.40;99.90;;;;;;5338154;26;20463;-86
2024/04/22 05:02:11;;;;;;;17.30;10.45;;;2.40;99.90;;;;;;5337060;26;20032;-86
2024/04/22 05:04:37;;;;;;;16.55;9.70;;;2.50;99.90;;;;;;5361961;26;20013;-86
2024/04/22 05:07:03;;;;;;;16.30;9.85;;;2.50;99.90;;;;;;5337610;26;20029;-86
2024/04/22 05:09:29;;;;;;;15.65;9.40;;;2.60;99.90;;;;;;5357878;26;20074;-86
2024/04/22 05:11:54;;;;;;;15.90;9.48;;;2.70;99.90;;;;;;5372701;26;20484;-85
2024/04/22 05:14:20;;;;;;;14.93;9.30;;;2.70;99.90;;;;;;5343591;26;20009;-85
2024/04/22 05:16:46;;;;;;;13.75;8.32;;;2.80;99.90;;;;;;5345922;26;20005;-84
2024/04/22 05:19:11;;;;;;;12.82;8.18;;;2.90;99.90;;;;;;5370976;26;20000;-85
2024/04/22 05:21:37;;;;;;;14.20;7.95;;;3.00;99.90;;;;;;5374244;26;20001;-85
2024/04/22 05:24:10;;;;;;;13.77;7.63;;;3.00;99.90;;;;;;5371856;26;20445;-85
2024/04/22 05:26:36;;;;;;;13.15;7.25;;;3.10;99.90;;;;;;5341385;26;19997;-86
2024/04/22 05:29:02;;;;;;;14.05;7.63;;;3.20;99.90;;;;;;5371164;26;20001;-85
2024/04/22 05:31:28;;;;;;;13.05;7.35;;;3.20;99.90;;;;;;5334603;26;20008;-85
2024/04/22 05:36:38;;;;;;;12.60;6.75;;;3.40;99.90;;;;;;5339239;26;20012;-84
2024/04/22 05:39:03;;;;;;;11.55;7.15;;;3.40;99.90;;;;;;5342345;26;20013;-85
2024/04/22 05:41:29;;;;;;;13.63;7.32;;;3.50;99.90;;;;;;5352593;26;20001;-85
2024/04/22 05:43:55;;;;;;;11.35;7.03;;;3.60;99.90;;;;;;5338882;26;20039;-84
2024/04/22 05:46:22;;;;;;;15.73;8.13;;;3.70;99.90;;;;;;5321270;26;20008;-85
2024/04/22 05:48:47;;;;;;;10.30;6.57;;;3.80;99.90;;;;;;5348500;26;20048;-86
2024/04/22 05:51:13;;;;;;;11.85;6.93;;;3.90;99.90;;;;;;5346097;26;20001;-85
2024/04/22 05:53:39;;;;;;;9.77;6.88;;;3.90;99.90;;;;;;5348860;26;20001;-87
2024/04/22 05:56:04;;;;;;;13.32;6.88;;;4.00;99.90;;;;;;5339459;26;20013;-87
2024/04/22 05:58:30;;;;;;;12.70;6.97;;;4.10;99.90;;;;;;5348023;26;20001;-88
2024/04/22 06:00:57;;;;;;;11.25;6.65;;;4.20;99.90;;;;;;5341124;26;19997;-86
2024/04/22 06:03:22;;;;;;;10.00;6.68;;;4.20;99.90;;;;;;5366367;26;20005;-87
2024/04/22 06:05:48;;;;;;;10.18;6.43;;;4.30;99.90;;;;;;5347737;26;20001;-87
2024/04/22 06:08:13;;;;;;;10.77;6.53;;;4.40;99.90;;;;;;5344485;26;20075;-87
2024/04/22 06:10:39;;;;;;;12.02;6.07;;;4.40;99.90;;;;;;5357127;26;20001;-87
2024/04/22 06:13:05;;;;;;;11.50;6.30;;;4.60;99.90;;;;;;5336006;26;20006;-87
2024/04/22 06:15:30;;;;;;;10.38;5.95;;;4.60;99.90;;;;;;5345982;26;20016;-88
2024/04/22 06:17:56;;;;;;;8.70;5.30;;;4.70;99.90;;;;;;5350109;26;20007;-87
2024/04/22 06:20:21;;;;;;;10.85;6.53;;;4.70;99.90;;;;;;5369186;26;20021;-86
2024/04/22 06:22:47;;;;;;;12.15;6.07;;;4.80;99.90;;;;;;5346654;26;20004;-87
2024/04/22 06:25:13;;;;;;;14.23;6.00;;;4.90;99.90;;;;;;5345180;26;20001;-87
2024/04/22 06:27:38;;;;;;;9.77;6.10;;;5.00;99.90;;;;;;5345840;26;20000;-87
2024/04/22 06:30:04;;;;;;;9.45;5.47;;;5.00;99.90;;;;;;5349110;26;20005;-87
2024/04/22 06:32:34;;;;;;;9.93;6.20;;;5.10;99.90;;;;;;5341458;26;20333;-84
2024/04/22 06:35:03;;;;;;;12.40;5.63;;;5.20;99.90;;;;;;5346094;26;20036;-85
2024/04/22 06:37:29;;;;;;;12.02;6.18;;;5.30;99.90;;;;;;5320601;26;20005;-87
2024/04/22 06:39:55;;;;;;;9.38;5.55;;;5.40;99.90;;;;;;5344083;26;19993;-85
2024/04/22 06:42:21;;;;;;;11.07;5.65;;;5.60;99.90;;;;;;5339043;26;20027;-82
2024/04/22 06:44:47;;;;;;;10.00;5.28;;;5.70;99.90;;;;;;5349024;26;20012;-84
2024/04/22 06:47:14;;;;;;;9.60;5.28;;;5.80;99.90;;;;;;5344883;26;20009;-84
2024/04/22 06:49:39;;;;;;;10.95;5.40;;;6.00;99.90;;;;;;5343237;26;19997;-84
2024/04/22 06:52:08;;;;;;;7.10;4.63;;;6.10;99.90;;;;;;5316627;26;20030;-82
2024/04/22 06:54:34;;;;;;;7.22;5.03;;;6.20;99.90;;;;;;5336189;26;20016;-84
2024/04/22 06:56:59;;;;;;;6.57;4.18;;;6.30;99.90;;;;;;5345992;26;20009;-85
2024/04/22 06:59:25;;;;;;;8.00;4.38;;;6.40;99.90;;;;;;5349093;26;20001;-85
2024/04/22 07:01:51;;;;;;;7.85;3.72;;;6.50;99.90;;;;;;5346348;26;20005;-86
2024/04/22 07:04:16;;;;;;;7.00;3.28;;;6.60;99.90;;;;;;5348941;26;19997;-86
2024/04/22 07:06:42;;;;;;;7.43;4.00;;;6.70;99.90;;;;;;5347175;26;20017;-85
2024/04/22 07:09:13;;;;;;;6.05;3.72;;;6.80;99.90;;;;;;5339926;26;20011;-85
2024/04/22 07:11:39;;;;;;;7.00;3.67;;;7.00;99.90;;;;;;5371070;26;20011;-85
2024/04/22 07:14:05;;;;;;;7.43;2.65;;;7.10;99.90;;;;;;5346363;26;20004;-83
2024/04/22 07:16:32;;;;;;;5.93;3.22;;;7.20;99.90;;;;;;5346990;26;20005;-85
2024/04/22 07:18:57;;;;;;;6.07;3.30;;;7.30;99.90;;;;;;5346474;26;20012;-85
2024/04/22 07:21:23;;;;;;;6.38;3.00;;;7.50;99.90;;;;;;5328838;26;20461;-84
2024/04/22 07:23:48;;;;;;;4.57;2.22;;;7.60;99.90;;;;;;5335936;26;20070;-86
2024/04/22 07:26:15;;;;;;;7.00;3.03;;;7.80;99.90;;;;;;5344589;26;20294;-87
2024/04/22 07:28:41;;;;;;;5.57;3.00;;;8.00;99.90;;;;;;5326754;26;20581;-86
2024/04/22 07:31:07;;;;;;;6.90;2.92;;;8.10;99.90;;;;;;5346749;26;20005;-86
2024/04/22 07:33:33;;;;;;;2.83;1.75;;;8.30;99.90;;;;;;5344233;26;20033;-86
2024/04/22 07:36:31;;;;;;;3.65;1.35;;;8.50;99.90;;;;;;5346137;26;20015;-86
2024/04/22 07:39:00;;;;;;;2.88;1.73;;;8.50;99.90;;;;;;5331553;26;20000;-85
2024/04/22 07:41:27;;;;;;;4.80;2.42;;;8.50;99.90;;;;;;5366430;26;20455;-87
2024/04/22 07:43:53;;;;;;;2.67;1.63;;;8.40;99.90;;;;;;5344278;26;20004;-85
2024/04/22 07:46:18;;;;;;;5.60;2.13;;;8.50;99.90;;;;;;5372459;26;19997;-83
2024/04/22 07:48:47;;;;;;;7.53;2.92;;;8.60;99.90;;;;;;5339559;26;20448;-83
2024/04/22 07:51:12;;;;;;;6.60;2.70;;;8.70;99.90;;;;;;5338140;26;20015;-83
2024/04/22 07:53:38;;;;;;;7.43;4.00;;;8.70;99.90;;;;;;5340342;26;20005;-84
2024/04/22 07:56:14;;;;;;;5.68;3.38;;;8.70;99.90;;;;;;5342645;26;20005;-83
2024/04/22 07:58:41;;;;;;;4.20;2.50;;;8.80;99.90;;;;;;5334302;26;20221;-80
2024/04/22 08:01:07;;;;;;;4.65;2.13;;;8.90;99.90;;;;;;5333961;26;20029;-82
2024/04/22 08:03:33;;;;;;;4.95;2.28;;;9.00;99.90;;;;;;5333982;26;21061;-83
2024/04/22 08:06:04;;;;;;;5.50;1.60;;;9.10;99.90;;;;;;5344667;26;20019;-85
2024/04/22 08:08:32;;;;;;;5.70;1.75;;;9.20;99.90;;;;;;5336058;26;20021;-85
2024/04/22 08:10:58;;;;;;;3.25;1.60;;;9.20;99.90;;;;;;5330466;26;20020;-85
2024/04/22 08:13:24;;;;;;;3.92;2.08;;;9.30;99.90;;;;;;5348133;26;20008;-85
2024/04/22 08:15:50;;;;;;;5.53;2.08;;;9.40;99.90;;;;;;5344186;26;20368;-86
2024/04/22 08:18:16;;;;;;;6.20;2.10;;;9.40;99.90;;;;;;5374030;26;20012;-86
2024/04/22 08:20:41;;;;;;;5.75;1.88;;;9.40;99.90;;;;;;5342828;26;20448;-85
2024/04/22 08:23:07;;;;;;;7.72;2.30;;;9.50;99.90;;;;;;5347093;26;20003;-83
2024/04/22 08:25:33;;;;;;;4.47;1.67;;;9.60;99.90;;;;;;5334070;26;20033;-84
2024/04/22 08:27:58;;;;;;;6.05;2.13;;;9.60;99.90;;;;;;5367690;26;20005;-84
2024/04/22 08:30:27;;;;;;;4.90;2.20;;;9.70;99.90;;;;;;5348078;26;20013;-83
2024/04/22 08:32:54;;;;;;;5.20;1.92;;;9.80;99.90;;;;;;5349581;26;20040;-84
2024/04/22 08:35:19;;;;;;;4.10;1.90;;;9.90;99.90;;;;;;5335127;26;20060;-85
2024/04/22 08:37:45;;;;;;;5.72;2.00;;;9.90;99.90;;;;;;5342175;26;20008;-84
2024/04/22 08:40:11;;;;;;;6.30;1.90;;;10.00;99.90;;;;;;5330151;26;20048;-84
2024/04/22 08:42:38;;;;;;;4.80;1.55;;;10.00;99.90;;;;;;5333003;26;20001;-85
2024/04/22 08:45:05;;;;;;;5.57;1.77;;;10.20;99.90;;;;;;5347341;26;20074;-85
2024/04/22 08:47:31;;;;;;;7.93;2.05;;;10.20;99.90;;;;;;5350654;26;20005;-85
2024/04/22 08:49:58;;;;;;;5.20;1.45;;;10.30;99.90;;;;;;5378520;26;20423;-85
2024/04/22 08:52:24;;;;;;;2.78;1.15;;;10.30;99.90;;;;;;5339635;26;20074;-84
2024/04/22 08:54:50;;;;;;;4.72;1.10;;;10.30;99.90;;;;;;5350833;26;20004;-85
2024/04/22 08:57:15;;;;;;;6.03;1.33;;;10.40;99.90;;;;;;5332975;26;20001;-85
2024/04/22 08:59:41;;;;;;;5.45;1.42;;;10.50;99.90;;;;;;5337645;26;20005;-85
2024/04/22 09:02:07;;;;;;;7.82;1.30;;;10.50;99.90;;;;;;5338305;26;20460;-85
2024/04/22 09:04:33;;;;;;;8.20;1.55;;;10.50;99.90;;;;;;5339115;26;20012;-85
2024/04/22 09:07:05;;;;;;;8.32;1.00;;;10.60;99.90;;;;;;5338796;26;20006;-84
2024/04/22 09:09:32;;;;;;;4.95;0.98;;;10.60;99.90;;;;;;5345976;26;20109;-85
2024/04/22 09:11:57;;;;;;;3.53;0.90;;;10.50;99.90;;;;;;5336083;26;20000;-85
2024/04/22 09:14:25;;;;;;;3.40;1.00;;;10.60;99.90;;;;;;5344670;26;19997;-85
2024/04/22 09:16:50;;;;;;;6.70;0.70;;;10.60;99.90;;;;;;5347027;26;20013;-85
2024/04/22 09:19:23;;;;;;;6.57;1.45;;;10.60;99.90;;;;;;5338071;26;20415;-85
2024/04/22 09:21:48;;;;;;;;;;;10.60;99.90;;;;;;5330945;26;20074;-85
2024/04/22 09:24:14;;;;;;;4.35;0.77;;;10.60;99.90;;;;;;5335789;26;19937;-82
2024/04/22 09:26:40;;;;;;;4.60;1.15;;;10.60;99.90;;;;;;5333346;26;20075;-84
2024/04/22 09:29:08;;;;;;;2.80;0.90;;;10.70;99.90;;;;;;5342719;26;20326;-84
2024/04/22 09:31:39;;;;;;;7.00;0.90;;;10.70;99.90;;;;;;5343400;26;20005;-84
2024/04/22 09:34:05;;;;;;;7.43;1.33;;;10.70;99.90;;;;;;5345170;26;20051;-85
2024/04/22 09:36:31;;;;;;;5.68;0.90;;;10.80;99.90;;;;;;5342395;26;20020;-85
2024/04/22 09:38:57;;;;;;;4.57;0.70;;;11.00;99.90;;;;;;5346427;26;20001;-85
2024/04/22 09:41:25;;;;;;;3.50;0.60;;;11.00;99.90;;;;;;5338786;26;20005;-83
2024/04/22 09:43:53;;;;;;;6.03;1.00;;;11.00;99.90;;;;;;5331803;26;19997;-85
2024/04/22 09:46:20;;;;;;;3.72;0.68;;;10.90;99.90;;;;;;5342882;26;20005;-85
2024/04/22 09:48:47;;;;;;;5.57;1.20;;;10.80;99.90;;;;;;5344314;26;20009;-85
2024/04/22 09:51:14;;;;;;;4.97;1.20;;;10.80;99.90;;;;;;5341042;26;20012;-85
2024/04/22 09:53:40;;;;;;;8.38;1.25;;;10.80;99.90;;;;;;5333026;26;20032;-86
2024/04/22 09:56:10;;;;;;;3.97;0.70;;;10.80;99.90;;;;;;5342983;26;20012;-85
2024/04/22 09:58:37;;;;;;;5.38;1.33;;;10.90;99.90;;;;;;5362996;26;20009;-85
2024/04/22 10:01:04;;;;;;;5.10;1.25;;;10.80;99.90;;;;;;5344122;26;20005;-85
2024/04/22 10:03:30;;;;;;;4.90;1.10;;;10.60;99.90;;;;;;5343515;26;20001;-85
2024/04/22 10:05:59;;;;;;;2.72;0.80;;;10.50;99.90;;;;;;5337401;26;20007;-86
2024/04/22 10:08:29;;;;;;;6.78;1.05;;;10.50;99.90;;;;;;5341068;26;20011;-85
2024/04/22 10:11:08;;;;;;;5.90;0.80;;;10.60;99.90;;;;;;5370848;26;20685;-85
2024/04/22 10:13:36;;;;;;;3.80;0.60;;;10.60;99.90;;;;;;5317209;26;20073;-85
2024/04/22 10:16:03;;;;;;;2.30;0.47;;;10.70;99.90;;;;;;5342126;26;20460;-85
2024/04/22 10:18:28;;;;;;;1.35;0.50;;;10.60;99.90;;;;;;5336332;26;20016;-85
2024/04/22 10:21:00;;;;;;;6.60;1.30;;;10.40;99.90;;;;;;5346248;26;20035;-84
2024/04/22 10:23:26;;;;;;;5.57;0.80;;;9.80;99.90;;;;;;5365932;26;20771;-84
2024/04/22 10:25:51;;;;;;;2.50;0.60;;;9.40;99.90;;;;;;5341923;26;20001;-84
2024/04/22 10:28:17;;;;;;;3.65;0.75;;;9.30;99.90;;;;;;5332576;26;20113;-83
2024/04/22 10:30:43;;;;;;;4.78;0.90;;;9.30;99.90;;;;;;5367577;26;19997;-83
2024/04/22 10:33:09;;;;;;;3.92;0.80;;;9.40;99.90;;;;;;5343201;26;19997;-84
2024/04/22 10:35:34;;;;;;;4.65;1.00;;;9.60;99.90;;;;;;5341391;26;20017;-84
2024/04/22 10:38:00;;;;;;;4.72;0.90;;;9.70;99.90;;;;;;5334543;26;19996;-83
2024/04/22 10:40:26;;;;;;;14.27;1.10;;;9.70;99.90;;;;;;5341850;26;20001;-84
2024/04/22 10:42:52;;;;;;;3.22;0.85;;;9.60;99.90;;;;;;5340656;26;20011;-83
2024/04/22 10:45:19;;;;;;;5.63;1.48;;;9.40;99.90;;;;;;5334362;26;20318;-85
2024/04/22 10:47:45;;;;;;;3.70;0.77;;;8.60;99.90;;;;;;5334567;26;20008;-84
2024/04/22 10:50:18;;;;;;;2.97;0.80;;;7.60;99.90;;;;;;5338982;26;20001;-84
2024/04/22 10:52:44;;;;;;;4.78;0.80;;;6.60;99.90;;;;;;5341689;26;19996;-84
2024/04/22 10:55:13;;;;;;;1.98;0.63;;;6.00;99.90;;;;;;5341186;26;20457;-84
2024/04/22 10:57:38;;;;;;;3.40;1.70;;;5.40;99.90;;;;;;5331405;26;20005;-84
2024/04/22 11:00:06;;;;;;;3.55;0.90;;;5.10;99.90;;;;;;5330744;26;20079;-83
2024/04/22 11:02:32;;;;;;;4.70;1.10;;;5.00;99.90;;;;;;5342322;26;20001;-86
2024/04/22 11:04:59;;;;;;;4.03;0.88;;;5.00;99.90;;;;;;5338078;26;19997;-85
2024/04/22 11:07:26;;;;;;;1.88;0.70;;;5.00;99.90;;;;;;5365497;26;21859;-86
2024/04/22 11:09:52;;;;;;;4.00;0.65;;;5.10;99.90;;;;;;5340736;26;20001;-85
2024/04/22 11:12:18;;;;;;;4.65;1.25;;;5.20;99.90;;;;;;5324664;26;20067;-85
2024/04/22 11:14:45;;;;;;;3.50;1.10;;;5.40;99.90;;;;;;5346425;26;20005;-86
2024/04/22 11:17:12;;;;;;;6.38;1.48;;;5.60;99.90;;;;;;5340898;26;20001;-87
2024/04/22 11:19:38;;;;;;;4.03;1.25;;;5.80;99.90;;;;;;5333937;26;20140;-86
2024/04/22 11:22:05;;;;;;;5.05;1.10;;;6.00;99.90;;;;;;5344465;26;20001;-86
2024/04/22 11:24:32;;;;;;;2.78;1.00;;;6.10;99.90;;;;;;5348047;26;20001;-86
2024/04/22 11:26:58;;;;;;;3.80;1.00;;;6.20;99.90;;;;;;5348441;26;20012;-84
2024/04/22 11:29:25;;;;;;;3.13;1.02;;;6.30;99.90;;;;;;5346584;26;20004;-85
2024/04/22 11:31:55;;;;;;;3.45;1.23;;;6.40;99.90;;;;;;5373691;26;20325;-86
2024/04/22 11:34:24;;;;;;;4.63;1.05;;;6.60;99.90;;;;;;5348237;26;20441;-85
2024/04/22 11:36:57;;;;;;;2.15;0.98;;;6.70;99.90;;;;;;5347920;26;19997;-86
2024/04/22 11:39:25;;;;;;;5.75;1.50;;;6.70;99.90;;;;;;5346222;26;20004;-85
2024/04/22 11:41:51;;;;;;;4.05;1.02;;;6.70;99.90;;;;;;5347967;26;19996;-86
2024/04/22 11:44:17;;;;;;;2.42;0.90;;;6.80;99.90;;;;;;5333414;26;20420;-86
2024/04/22 11:46:43;;;;;;;1.90;0.80;;;6.90;99.90;;;;;;5342661;26;20001;-86
2024/04/22 11:49:09;;;;;;;3.05;0.93;;;7.10;99.90;;;;;;5346997;26;20070;-86
2024/04/22 11:51:35;;;;;;;1.90;0.90;;;7.30;99.90;;;;;;5348189;26;20437;-86
2024/04/22 11:54:01;;;;;;;1.63;0.70;;;7.50;99.90;;;;;;5376362;26;19997;-86
2024/04/22 11:56:33;;;;;;;1.67;0.82;;;7.70;99.90;;;;;;5338183;26;20023;-87
2024/04/22 11:58:59;;;;;;;2.88;1.00;;;7.80;99.90;;;;;;5332699;26;20017;-86
2024/04/22 12:01:25;;;;;;;2.05;0.95;;;8.00;99.90;;;;;;5342555;26;20503;-85
2024/04/22 12:03:51;;;;;;;2.25;1.02;;;8.30;99.90;;;;;;5333812;26;20004;-85
2024/04/22 12:06:16;;;;;;;2.90;0.70;;;8.60;99.90;;;;;;5337156;26;21264;-85
2024/04/22 12:08:42;;;;;;;2.88;0.90;;;8.70;99.90;;;;;;5330626;26;20001;-87
2024/04/22 12:11:08;;;;;;;3.00;1.17;;;8.80;99.90;;;;;;5331920;26;20026;-86
2024/04/22 12:13:33;;;;;;;4.53;2.00;;;8.80;99.90;;;;;;5343803;26;20001;-86
2024/04/22 12:15:59;;;;;;;3.10;1.17;;;8.80;99.90;;;;;;5330641;26;20420;-86
2024/04/22 12:18:25;;;;;;;2.28;1.00;;;8.90;99.90;;;;;;5334792;26;20074;-87
2024/04/22 12:20:50;;;;;;;1.80;0.80;;;9.00;99.90;;;;;;5342557;26;20015;-87
2024/04/22 12:23:16;;;;;;;4.15;0.93;;;9.10;99.90;;;;;;5364279;26;20012;-85
2024/04/22 12:25:42;;;;;;;2.67;0.70;;;9.30;99.90;;;;;;5341812;26;20001;-86
2024/04/22 12:28:08;;;;;;;4.47;0.88;;;9.50;99.90;;;;;;5331271;26;20112;-86
2024/04/22 12:30:34;;;;;;;5.07;1.02;;;9.60;99.90;;;;;;5341329;26;20465;-87
2024/04/22 12:33:01;;;;;;;2.47;0.90;;;9.70;99.90;;;;;;5343779;26;20534;-86
2024/04/22 12:35:26;;;;;;;4.22;1.15;;;9.80;99.90;;;;;;5361345;26;19993;-86
2024/04/22 12:37:52;;;;;;;4.10;1.23;;;9.80;99.90;;;;;;5323549;26;20016;-86
2024/04/22 12:40:18;;;;;;;3.25;1.20;;;9.80;99.90;;;;;;5345869;26;20019;-86
2024/04/22 12:42:43;;;;;;;3.78;1.10;;;9.80;99.90;;;;;;5348249;26;20007;-86
2024/04/22 12:45:10;;;;;;;2.25;0.98;;;9.80;99.90;;;;;;5376130;26;19997;-86
2024/04/22 12:53:04;;;;;;;2.80;1.38;;;10.50;99.90;;;;;;5335971;26;20051;-86
2024/04/22 12:55:30;;;;;;;2.35;1.10;;;10.70;99.90;;;;;;5347167;26;20012;-85
2024/04/22 12:57:57;;;;;;;2.80;1.00;;;10.70;99.90;;;;;;5355753;26;20005;-86
2024/04/22 13:00:23;;;;;;;4.47;0.80;;;10.80;99.90;;;;;;5350151;26;20005;-85
2024/04/22 13:02:49;;;;;;;1.88;0.80;;;10.90;99.90;;;;;;5345388;26;20557;-87